AirNav   Jet Aviation Boston
 
 374 users online  

2F5 Lamesa Municipal Airport
Lamesa, Texas, USA

GOING TO LAMESA?


FAA INFORMATION EFFECTIVE 21 JUNE 2018

Location

FAA Identifier: 2F5
Lat/Long: 32-45-22.7000N / 101-55-12.8000W
32-45.378333N / 101-55.213333W
32.7563056 / -101.9202222
(estimated)
Elevation: 2998.6 ft. / 914.0 m (surveyed)
Variation: 09E (1995)
From city: 2 miles NE of LAMESA, TX
Time zone: UTC -5 (UTC -6 during Standard Time)
Zip code: 79331

Airport Operations

Airport use: Open to the public
Activation date: 05/1971
Control tower: no
ARTCC: FORT WORTH CENTER
FSS: FORT WORTH FLIGHT SERVICE STATION
NOTAMs facility: FTW (NOTAM-D service available)
Attendance: UNATNDD
FOR SVC CALL 806-759-9270 OR 806-759-7747.
Wind indicator: lighted
Segmented circle: yes
Lights: SS-SR
Beacon: white-green (lighted land airport)
Operates sunset to sunrise.

Airport Communications

CTAF/UNICOM: 122.8
WX AWOS-3PT: 124.175 (806-872-0659)
  • APCH/DEP SERVICE PROVIDED BY FORT WORTH ARTCC ON FREQS 132.6/269.05 (LUBBOCK RCAG).

Nearby radio navigation aids

VOR radial/distance  VOR name  Freq  Var
BGSr304/31.3BIG SPRING VORTAC114.3011E

Airport Services

Fuel available: 100LL JET-A
Parking: tiedowns
Airframe service: MINOR
Powerplant service: MAJOR

Runway Information

Runway 16/34

Dimensions: 5002 x 75 ft. / 1525 x 23 m
Surface: asphalt, in good condition
Weight bearing capacity: 
Single wheel: 20.0
Runway edge lights: medium intensity
RUNWAY 16  RUNWAY 34
Latitude: 32-45.629155N32-44.831212N
Longitude: 101-55.097582W101-54.850600W
Elevation: 2991.7 ft.2985.5 ft.
Gradient: 0.2%0.1% UP
Traffic pattern: leftleft
Runway heading: 156 magnetic, 165 true336 magnetic, 345 true
Markings: nonprecision, in good conditionnonprecision, in good condition
Visual slope indicator: 2-light PAPI on left (3.00 degrees glide path)2-light PAPI on left (3.00 degrees glide path)
Touchdown point: yes, no lightsyes, no lights
Obstructions: 12 ft. road, 530 ft. from runway, 27:1 slope to clearnone

Runway 7/25

Dimensions: 4006 x 60 ft. / 1221 x 18 m
Surface: asphalt, in good condition
Weight bearing capacity: 
Single wheel: 12.0
Runway edge lights: medium intensity
RUNWAY 7  RUNWAY 25
Latitude: 32-45.479747N32-45.645295N
Longitude: 101-55.891378W101-55.134638W
Elevation: 2991.7 ft.2991.3 ft.
Gradient: 0.4%UP
Traffic pattern: leftleft
Runway heading: 066 magnetic, 075 true246 magnetic, 255 true
Markings: basic, in good conditionbasic, in good condition
Touchdown point: yes, no lightsyes, no lights
Obstructions: none15 ft. road, 721 ft. from runway, 34:1 slope to clear

Airport Ownership and Management from official FAA records

Ownership: Publicly-owned
Owner: LAMESA CITY & DAWSON CO
601 S. 1ST
LAMESA, TX 79331
Phone (806) 872-4321
Manager: JOHN FARRIS
P.O. BOX 259
LAMESA, TX 79331
Phone (806) 759-7747

Airport Operational Statistics

Aircraft based on the field: 37
Single engine airplanes: 33
Multi engine airplanes: 3
Jet airplanes: 1
    
Aircraft operations: avg 28/day *
67% local general aviation
33% transient general aviation
* for 12-month period ending 26 April 2018

Instrument Procedures

NOTE: All procedures below are presented as PDF files. If you need a reader for these files, you should download the free Adobe Reader.

NOT FOR NAVIGATION. Please procure official charts for flight.
FAA instrument procedures published for use from 21 June 2018 at 0901Z to 19 July 2018 at 0900Z.

 
IAPs - Instrument Approach Procedures
RNAV (GPS) RWY 16   download (198KB)
RNAV (GPS) RWY 34   download (238KB)

Other nearby airports with instrument procedures:

KBFE - Terry County Airport (29 nm NW)
KGNC - Gaines County Airport (37 nm W)
KBPG - Big Spring Mc Mahon-Wrinkle Airport (38 nm SE)
E11 - Andrews County Airport (40 nm SW)
KMDD - Midland Airpark (44 nm S)
 
Loc | Ops | Rwys | IFR | FBO | Links
Com | Nav | Svcs | Stats | Notes

Chandler Aviation LLC
 
Area around 2F5 (Lamesa Municipal Airport)
 
Road maps at: MapQuest Bing Google
 
Aerial photo
WARNING: Photo may not be current or correct
Aerial photo of 2F5 (Lamesa Municipal Airport)
Photo taken 03-May-2007

Do you have a better or more recent aerial photo of Lamesa Municipal Airport that you would like to share? If so, please send us your photo.

 
Sectional chart

 
Airport diagram
CAUTION: Diagram may not be current
Diagram of 2F5 (Lamesa Municipal Airport)
 
Airport distance calculator
Flying to Lamesa Municipal Airport? Find the distance to fly.

From to 2F5

Sunrise and sunset
Times for 23-Jun-2018
 Local
(UTC-5)
 Zulu
(UTC)
Morning civil twilight06:1311:13
Sunrise06:4211:42
Sunset20:5801:58
Evening civil twilight21:2702:27

Current date and time
Zulu (UTC)  23-Jun-2018 08:54:09
Local (UTC-5)  23-Jun-2018 03:54:09
 
METAR
KGNC 
37nm W 
230835Z AUTO 20011G20KT 10SM CLR 25/16 A2977 RMK AO2 T02510161
KBPG 
38nm SE 
230835Z AUTO 17019G26KT 10SM CLR 27/17 A2977 RMK AO2 T02680170
KE11 
40nm SW 
230835Z AUTO 19016G22KT 10SM CLR 26/17 A2976 RMK AO2 T02550170
KMDD 
44nm S 
230835Z AUTO 18016G19KT 10SM 28/19 A2976 RMK AO2 T02760185
KSNK 
49nm E 
230835Z AUTO 18013G18KT 10SM CLR 28/17 A2974 RMK AO2 T02770172
TAF
NOTAMs
Click for the latest NOTAMs
NOTAMs are issued by the DoD/FAA and will open in a separate window not controlled by AirNav.

 

 
 

FBO, Fuel Providers, and Aircraft Ground Support

  
 Business Name 
 
 Contact 
 
 Services / Description 
 
Fuel Prices
 
Comments
  
City of Lamesa (self-serve fuel) 806-759-9270
806-759-7747
[email]
Aviation fuel, Aircraft parking (ramp or tiedown), Courtesy transportation, Pilots lounge / snooze room, Restrooms
More info and photos of City of Lamesa (self-serve fuel)
Phillips 66
100LL Jet A
SS $3.98 $3.22 
 Updated 19-Jun-2018
 
   6 read write
SS=Self service
Update Fuel Prices
 

Would you like to see your business listed on this page?

 If your business provides an interesting product or service to pilots, flight crews, aircraft, or users of the Lamesa Municipal Airport, you should consider listing it here.  To start the listing process, click on the button below
 
Add a business
 

Other Pages about Lamesa Municipal Airport

Update a link
 
Copyright © AirNav, LLC. All rights reserved. Privacy Policy  Contact